Time;durP1;ratioP1;P1;durP2;ratioP2;P2;SDS_P1;SDS_P2;PMS_P1;PMS_P2;Temp;Humidity;BMP_temperature;BMP_pressure;BME280_temperature;BME280_humidity;BME280_pressure;Samples;Min_cycle;Max_cycle;Signal;HPM_P1;HPM_P2
2023/01/25 00:00:39;;;;;;;28.42;12.10;;;;;;;1.34;100.00;100461.13;5092265;28;20428;-74
2023/01/25 00:03:04;;;;;;;36.00;13.50;;;;;;;1.29;100.00;100452.56;5094935;28;20036;-73
2023/01/25 00:05:29;;;;;;;32.80;13.52;;;;;;;1.33;100.00;100462.06;5075438;28;20042;-74
2023/01/25 00:07:54;;;;;;;39.65;14.20;;;;;;;1.33;100.00;100461.19;5086428;28;20024;-74
2023/01/25 00:10:20;;;;;;;32.05;13.45;;;;;;;1.33;100.00;100455.88;5096263;28;20065;-74
2023/01/25 00:12:45;;;;;;;36.50;13.52;;;;;;;1.29;100.00;100456.09;5078429;28;20078;-74
2023/01/25 00:15:11;;;;;;;37.30;13.43;;;;;;;1.07;100.00;100408.69;5075612;28;20036;-74
2023/01/25 00:17:36;;;;;;;31.23;13.43;;;;;;;1.41;100.00;100475.72;5095490;28;20019;-74
2023/01/25 00:20:02;;;;;;;35.58;14.23;;;;;;;1.45;100.00;100471.91;5076897;28;20397;-74
2023/01/25 00:22:27;;;;;;;36.05;13.85;;;;;;;1.57;100.00;100472.84;5076022;28;20043;-74
2023/01/25 00:24:52;;;;;;;33.60;14.00;;;;;;;1.38;100.00;100437.75;5064135;28;20051;-74
2023/01/25 00:27:18;;;;;;;28.77;12.27;;;;;;;1.40;100.00;100447.34;5074549;28;20543;-75
2023/01/25 00:29:43;;;;;;;34.85;13.75;;;;;;;1.38;100.00;100445.75;5094867;28;20028;-74
2023/01/25 00:32:11;;;;;;;32.85;14.07;;;;;;;1.48;100.00;100455.69;5095126;28;20020;-74
2023/01/25 00:34:48;;;;;;;44.10;15.10;;;;;;;1.42;100.00;100456.09;5076860;28;20067;-74
2023/01/25 00:37:37;;;;;;;44.33;15.68;;;;;;;1.31;100.00;100445.31;5068221;28;20270;-74
2023/01/25 00:40:04;;;;;;;38.28;14.52;;;;;;;1.30;100.00;100435.59;5069835;28;20413;-74
2023/01/25 00:42:29;;;;;;;31.85;12.68;;;;;;;1.45;100.00;100449.72;5072306;28;20060;-74
2023/01/25 00:44:55;;;;;;;32.67;13.57;;;;;;;1.27;100.00;100446.47;5079546;28;20043;-74
2023/01/25 00:47:20;;;;;;;29.30;12.50;;;;;;;1.28;100.00;100465.06;5073971;28;20120;-74
2023/01/25 00:49:45;;;;;;;30.73;12.48;;;;;;;1.29;100.00;100448.09;5091656;28;20439;-74
2023/01/25 00:52:11;;;;;;;26.13;12.40;;;;;;;1.29;100.00;100444.56;5095374;28;20024;-74
2023/01/25 00:54:36;;;;;;;34.40;12.80;;;;;;;1.35;100.00;100440.63;5095367;28;20108;-74
2023/01/25 00:57:02;;;;;;;32.42;12.60;;;;;;;1.36;100.00;100453.84;5094830;28;20081;-74
2023/01/25 00:59:27;;;;;;;35.40;13.80;;;;;;;1.26;100.00;100437.63;5093739;28;20012;-74
2023/01/25 01:01:53;;;;;;;37.47;13.75;;;;;;;1.39;100.00;100445.66;5077013;28;20073;-74
2023/01/25 01:04:19;;;;;;;31.38;13.60;;;;;;;1.39;100.00;100439.44;5095502;28;20099;-74
2023/01/25 01:06:45;;;;;;;31.08;12.32;;;;;;;1.41;100.00;100433.03;5071404;28;20557;-74
2023/01/25 01:09:13;;;;;;;29.17;13.00;;;;;;;1.43;100.00;100436.47;5076357;28;20114;-75
2023/01/25 01:11:39;;;;;;;31.58;12.88;;;;;;;1.42;100.00;100434.78;5074094;28;20028;-75
2023/01/25 01:14:04;;;;;;;29.38;12.73;;;;;;;1.33;100.00;100427.38;5067813;28;20016;-74
2023/01/25 01:16:29;;;;;;;34.15;12.25;;;;;;;1.36;100.00;100423.66;5095667;28;20051;-74
2023/01/25 01:18:55;;;;;;;31.30;12.32;;;;;;;1.31;100.00;100416.00;5093579;28;20023;-75
2023/01/25 01:21:21;;;;;;;29.65;13.52;;;;;;;1.37;100.00;100436.91;5094755;28;20063;-74
2023/01/25 01:23:46;;;;;;;41.72;13.25;;;;;;;1.34;100.00;100426.44;5095060;28;20055;-74
2023/01/25 01:26:14;;;;;;;34.13;13.23;;;;;;;1.35;100.00;100428.13;5071136;28;20433;-75
2023/01/25 01:28:41;;;;;;;31.07;13.23;;;;;;;1.41;100.00;100450.88;5092869;28;20050;-74
2023/01/25 01:31:14;;;;;;;29.95;13.10;;;;;;;1.28;100.00;100435.72;5094955;28;20031;-74
2023/01/25 01:33:40;;;;;;;31.17;12.20;;;;;;;1.41;100.00;100433.03;5078090;28;20077;-74
2023/01/25 01:36:11;;;;;;;31.67;13.07;;;;;;;1.48;100.00;100455.69;5092262;28;20028;-74
2023/01/25 01:38:37;;;;;;;31.77;12.18;;;;;;;1.27;100.00;100426.00;5070272;28;20031;-74
2023/01/25 01:41:02;;;;;;;28.50;12.23;;;;;;;1.33;100.00;100432.72;5075311;28;20024;-74
2023/01/25 01:43:29;;;;;;;31.88;12.43;;;;;;;1.37;100.00;100434.22;5094316;28;20020;-74
2023/01/25 01:45:59;;;;;;;35.13;13.57;;;;;;;1.46;100.00;100452.25;5075973;28;20051;-74
2023/01/25 01:48:49;;;;;;;30.10;13.18;;;;;;;1.43;100.00;100456.97;5093990;28;20024;-74
2023/01/25 01:51:29;;;;;;;28.88;12.45;;;;;;;1.44;100.00;100454.19;5075838;28;20122;-74
2023/01/25 01:54:00;;;;;;;35.83;13.60;;;;;;;1.43;100.00;100447.13;5074748;28;20020;-73
2023/01/25 01:56:33;;;;;;;31.60;11.90;;;;;;;1.48;100.00;100449.50;5074450;28;20024;-74
2023/01/25 01:58:59;;;;;;;27.85;12.38;;;;;;;1.47;100.00;100455.81;5075168;28;20434;-74
2023/01/25 02:01:25;;;;;;;26.77;12.68;;;;;;;1.41;100.00;100437.53;5093792;28;20501;-74
2023/01/25 02:03:51;;;;;;;30.52;13.23;;;;;;;1.46;100.00;100436.25;5076234;28;20032;-74
2023/01/25 02:06:37;;;;;;;27.70;12.65;;;;;;;1.50;100.00;100443.09;5074056;28;20027;-74
2023/01/25 02:09:03;;;;;;;26.63;11.23;;;;;;;1.45;100.00;100439.03;5091296;28;20039;-74
2023/01/25 02:11:31;;;;;;;30.02;13.27;;;;;;;1.19;100.00;100412.34;5094831;28;20024;-77
2023/01/25 02:13:59;;;;;;;31.20;12.95;;;;;;;1.40;100.00;100438.50;5097062;28;20028;-74
2023/01/25 02:16:26;;;;;;;31.80;12.57;;;;;;;1.18;100.00;100401.75;5102167;28;20028;-74
2023/01/25 02:18:53;;;;;;;29.20;12.30;;;;;;;1.30;100.00;100446.25;5093896;28;20040;-74
2023/01/25 02:21:20;;;;;;;29.77;12.45;;;;;;;1.19;100.00;100422.16;5106738;28;20081;-74
2023/01/25 02:23:53;;;;;;;30.65;12.25;;;;;;;1.34;100.00;100441.56;5095097;28;20059;-74
2023/01/25 02:26:21;;;;;;;30.00;12.10;;;;;;;1.29;100.00;100428.56;5072883;28;20107;-74
2023/01/25 02:28:56;;;;;;;34.00;12.98;;;;;;;1.21;100.00;100412.25;5091891;28;20049;-74
2023/01/25 02:31:22;;;;;;;33.83;12.65;;;;;;;1.18;100.00;100410.63;5091831;28;20459;-74
2023/01/25 02:33:47;;;;;;;30.63;12.32;;;;;;;1.12;100.00;100416.38;5074403;28;20020;-74
2023/01/25 02:36:24;;;;;;;29.33;11.98;;;;;;;1.17;100.00;100418.72;5089615;28;20401;-74
2023/01/25 02:39:08;;;;;;;29.05;12.88;;;;;;;1.24;100.00;100436.03;5067745;28;20434;-74
2023/01/25 02:41:34;;;;;;;30.48;12.43;;;;;;;1.24;100.00;100430.69;5093404;28;20039;-74
2023/01/25 02:44:01;;;;;;;26.45;11.55;;;;;;;1.15;100.00;100423.31;5085002;28;20394;-75
2023/01/25 02:46:30;;;;;;;24.27;10.38;;;;;;;1.14;100.00;100393.13;5072748;28;20454;-74
2023/01/25 02:48:57;;;;;;;23.48;10.48;;;;;;;1.36;100.00;100423.66;5071383;28;20085;-74
2023/01/25 02:51:25;;;;;;;24.70;9.35;;;;;;;1.42;100.00;100418.78;5073980;28;20111;-74
2023/01/25 02:53:51;;;;;;;21.73;7.20;;;;;;;1.43;100.00;100399.13;5073326;28;20036;-74
2023/01/25 02:56:17;;;;;;;33.38;10.98;;;;;;;1.31;100.00;100386.66;5068821;28;20393;-74
2023/01/25 02:58:43;;;;;;;23.83;9.90;;;;;;;1.26;100.00;100380.78;5073758;28;20024;-72
2023/01/25 03:01:09;;;;;;;17.23;7.90;;;;;;;1.47;100.00;100397.13;5074761;28;20107;-74
2023/01/25 03:03:35;;;;;;;14.88;7.07;;;;;;;1.43;100.00;100379.63;5074916;28;20031;-74
2023/01/25 03:06:00;;;;;;;13.32;6.20;;;;;;;1.39;100.00;100365.66;5066852;28;20020;-74
2023/01/25 03:08:25;;;;;;;11.35;5.82;;;;;;;1.42;100.00;100364.59;5082452;28;20390;-74
2023/01/25 03:10:55;;;;;;;12.15;5.63;;;;;;;1.44;100.00;100373.31;5069953;28;20032;-74
2023/01/25 03:13:20;;;;;;;11.80;5.78;;;;;;;1.39;100.00;100357.66;5071500;28;20027;-74
2023/01/25 03:15:45;;;;;;;9.68;5.10;;;;;;;1.49;100.00;100381.84;5073898;28;20036;-75
2023/01/25 03:18:10;;;;;;;13.82;6.22;;;;;;;1.45;100.00;100369.69;5074131;28;20390;-74
2023/01/25 03:20:36;;;;;;;14.60;6.43;;;;;;;1.42;100.00;100356.59;5071103;28;20069;-74
2023/01/25 03:23:01;;;;;;;13.73;6.40;;;;;;;1.56;100.00;100366.28;5074159;28;20083;-74
2023/01/25 03:25:26;;;;;;;14.20;5.55;;;;;;;1.58;100.00;100378.56;5113666;22;20058;-77
2023/01/25 03:27:53;;;;;;;11.90;6.25;;;;;;;1.52;100.00;100377.19;5091115;28;20019;-77
2023/01/25 03:30:18;;;;;;;15.05;6.53;;;;;;;1.44;100.00;100367.97;5092680;28;20019;-77
2023/01/25 03:32:43;;;;;;;14.20;6.18;;;;;;;1.46;100.00;100372.25;5088356;28;20069;-77
2023/01/25 03:35:08;;;;;;;13.60;6.18;;;;;;;1.48;100.00;100381.00;5084821;28;20476;-77
2023/01/25 03:37:34;;;;;;;13.75;6.30;;;;;;;1.37;100.00;100356.91;5074742;28;20024;-77
2023/01/25 03:39:59;;;;;;;14.57;7.10;;;;;;;1.43;100.00;100363.63;5056969;28;20415;-77
2023/01/25 03:42:24;;;;;;;13.93;6.00;;;;;;;1.48;100.00;100381.00;5066333;28;20031;-77
2023/01/25 03:44:50;;;;;;;14.52;6.70;;;;;;;1.43;100.00;100350.28;5073303;28;20028;-77
2023/01/25 03:47:15;;;;;;;15.77;7.25;;;;;;;1.47;100.00;100367.78;5064470;28;20393;-77
2023/01/25 03:49:40;;;;;;;13.70;6.40;;;;;;;1.25;100.00;100337.25;5085578;28;20024;-78
2023/01/25 03:52:07;;;;;;;12.50;6.63;;;;;;;1.49;100.00;100372.06;5072142;28;20024;-77
2023/01/25 03:54:32;;;;;;;12.20;5.88;;;;;;;1.51;100.00;100369.25;5071585;28;20529;-77
2023/01/25 03:56:57;;;;;;;11.65;6.15;;;;;;;1.49;100.00;100376.50;5070875;28;20032;-77
2023/01/25 03:59:22;;;;;;;18.73;7.30;;;;;;;1.46;100.00;100369.56;5092733;28;20473;-78
2023/01/25 04:01:48;;;;;;;17.42;7.38;;;;;;;1.46;100.00;100364.25;5075870;28;20027;-76
2023/01/25 04:04:13;;;;;;;15.13;6.80;;;;;;;1.33;100.00;100344.72;5093978;28;20028;-77
2023/01/25 04:06:38;;;;;;;12.48;6.43;;;;;;;1.53;100.00;100362.88;5080729;28;20028;-77
2023/01/25 04:09:04;;;;;;;13.18;6.28;;;;;;;1.48;100.00;100361.47;5070927;28;20114;-77
2023/01/25 04:11:29;;;;;;;12.23;6.38;;;;;;;1.30;100.00;100318.28;5084795;28;20027;-77
2023/01/25 04:13:55;;;;;;;15.73;6.05;;;;;;;1.40;100.00;100351.34;5075728;28;20032;-77
2023/01/25 04:16:20;;;;;;;16.98;6.63;;;;;;;1.48;100.00;100354.34;5075882;28;20020;-77
2023/01/25 04:18:45;;;;;;;11.70;5.50;;;;;;;1.45;100.00;100351.88;5055147;28;20031;-77
2023/01/25 04:21:10;;;;;;;11.85;5.10;;;;;;;1.28;100.00;100336.19;5070109;28;20021;-77
2023/01/25 04:23:36;;;;;;;8.45;4.68;;;;;;;1.27;100.00;100334.50;5074041;28;20049;-76
2023/01/25 04:26:04;;;;;;;11.30;5.22;;;;;;;1.31;100.00;100352.00;5069014;28;20024;-77
2023/01/25 04:28:30;;;;;;;10.73;5.57;;;;;;;1.27;100.00;100331.84;5069018;28;20042;-77
2023/01/25 04:30:56;;;;;;;14.48;6.30;;;;;;;1.33;100.00;100347.41;5088434;28;20278;-77
2023/01/25 04:33:22;;;;;;;10.27;5.65;;;;;;;1.37;100.00;100348.91;5086755;28;20370;-77
2023/01/25 04:35:47;;;;;;;18.23;7.40;;;;;;;1.35;100.00;100331.31;5089853;28;20029;-77
2023/01/25 04:38:13;;;;;;;17.52;8.20;;;;;;;1.26;100.00;100338.13;5066198;28;20027;-77
2023/01/25 04:40:38;;;;;;;15.43;7.05;;;;;;;1.23;100.00;100335.66;5066998;28;20036;-77
2023/01/25 04:43:05;;;;;;;11.23;5.25;;;;;;;1.22;100.00;100336.63;5082254;28;20032;-77
2023/01/25 04:45:31;;;;;;;11.63;5.45;;;;;;;1.09;100.00;100320.63;5062410;28;20031;-76
2023/01/25 04:47:58;;;;;;;10.85;5.88;;;;;;;1.26;100.00;100349.66;5080292;28;20069;-76
2023/01/25 04:50:24;;;;;;;9.60;5.10;;;;;;;1.20;100.00;100339.38;5068852;28;20374;-77
2023/01/25 04:52:50;;;;;;;13.82;5.75;;;;;;;1.21;100.00;100346.44;5078692;28;20027;-77
2023/01/25 04:55:15;;;;;;;11.30;4.70;;;;;;;1.23;100.00;100352.53;5073835;28;20569;-77
2023/01/25 04:57:41;;;;;;;10.18;4.93;;;;;;;1.20;100.00;100343.88;5086390;28;20500;-76
2023/01/25 05:00:07;;;;;;;12.43;5.20;;;;;;;1.12;100.00;100333.72;5085784;28;20028;-76
2023/01/25 05:02:32;;;;;;;9.52;4.75;;;;;;;1.22;100.00;100348.13;5090736;28;20103;-79
2023/01/25 05:04:57;;;;;;;10.63;5.15;;;;;;;1.14;100.00;100331.81;5080546;28;20066;-73
2023/01/25 05:07:23;;;;;;;11.02;5.28;;;;;;;1.15;100.00;100324.66;5071472;28;20474;-72
2023/01/25 05:09:48;;;;;;;11.70;4.90;;;;;;;1.11;100.00;100324.03;5092151;28;20260;-81
2023/01/25 05:12:14;;;;;;;11.48;4.90;;;;;;;1.16;100.00;100337.06;5086218;22;20078;-64
2023/01/25 05:14:39;;;;;;;11.65;5.45;;;;;;;1.17;100.00;100336.09;5064207;28;20033;-64
2023/01/25 05:17:06;;;;;;;10.82;5.20;;;;;;;1.19;100.00;100339.50;5064626;28;20020;-63
2023/01/25 05:19:32;;;;;;;13.93;5.32;;;;;;;1.18;100.00;100346.66;5056576;28;20043;-64
2023/01/25 05:21:57;;;;;;;14.00;5.95;;;;;;;1.16;100.00;100337.06;5052986;28;20543;-64
2023/01/25 05:24:31;;;;;;;12.25;6.25;;;;;;;1.10;100.00;100332.97;5049139;28;20071;-64
2023/01/25 05:27:02;;;;;;;12.27;5.82;;;;;;;1.11;100.00;100348.03;5039496;28;20924;-64
2023/01/25 05:29:41;;;;;;;15.38;5.72;;;;;;;1.15;100.00;100346.00;5051378;28;20108;-64
2023/01/25 05:32:10;;;;;;;12.35;5.65;;;;;;;1.10;100.00;100340.97;5054302;28;20078;-64
2023/01/25 05:34:36;;;;;;;11.27;5.32;;;;;;;1.09;100.00;100337.47;5044192;28;20032;-64
2023/01/25 05:37:04;;;;;;;12.88;6.35;;;;;;;1.05;100.00;100330.66;5045974;28;20025;-65
2023/01/25 05:39:29;;;;;;;14.02;6.20;;;;;;;1.07;100.00;100334.06;5043306;28;20028;-64
2023/01/25 05:41:56;;;;;;;15.25;6.32;;;;;;;1.09;100.00;100332.13;5050630;28;20479;-64
2023/01/25 05:44:23;;;;;;;12.18;5.72;;;;;;;1.12;100.00;100331.06;5041072;28;20025;-65
2023/01/25 05:46:48;;;;;;;14.98;5.63;;;;;;;1.09;100.00;100315.28;5045920;28;20437;-65
2023/01/25 05:49:14;;;;;;;11.73;5.47;;;;;;;1.13;100.00;100321.25;5045181;28;20040;-65
2023/01/25 05:51:40;;;;;;;11.10;5.35;;;;;;;1.14;100.00;100323.81;5033538;28;20017;-65
2023/01/25 05:54:08;;;;;;;11.77;5.38;;;;;;;1.17;100.00;100322.75;5045951;28;20029;-65
2023/01/25 05:56:33;;;;;;;11.98;5.35;;;;;;;1.20;100.00;100317.22;5053415;28;20025;-65
2023/01/25 05:59:00;;;;;;;14.07;6.13;;;;;;;1.16;100.00;100316.59;5044117;28;20028;-65
2023/01/25 06:01:26;;;;;;;13.57;5.70;;;;;;;1.13;100.00;100321.25;5048673;28;20038;-65
2023/01/25 06:03:53;;;;;;;10.07;4.75;;;;;;;1.15;100.00;100306.84;5046737;28;20025;-65
2023/01/25 06:06:19;;;;;;;11.93;5.30;;;;;;;1.17;100.00;100310.28;5053582;28;20374;-65
2023/01/25 06:08:44;;;;;;;10.05;4.70;;;;;;;1.16;100.00;100302.41;5063290;28;20024;-65
2023/01/25 06:11:13;;;;;;;9.00;4.38;;;;;;;1.19;100.00;100299.53;5051914;28;20465;-65
2023/01/25 06:13:38;;;;;;;11.18;5.20;;;;;;;1.21;100.00;100300.28;5036544;28;20033;-65
2023/01/25 06:16:04;;;;;;;12.50;5.18;;;;;;;1.20;100.00;100306.56;5052827;28;20036;-65
2023/01/25 06:18:32;;;;;;;13.23;5.72;;;;;;;1.23;100.00;100309.88;5040557;28;20484;-65
2023/01/25 06:20:58;;;;;;;10.07;5.32;;;;;;;1.23;100.00;100306.31;5047687;28;20017;-65
2023/01/25 06:23:25;;;;;;;14.20;6.03;;;;;;;1.22;100.00;100301.97;5046951;28;20090;-66
2023/01/25 06:25:52;;;;;;;9.90;5.65;;;;;;;1.13;100.00;100299.94;5035843;28;20037;-65
2023/01/25 06:28:18;;;;;;;16.80;6.75;;;;;;;1.23;100.00;100301.88;5044193;28;20540;-65
2023/01/25 06:30:43;;;;;;;16.13;7.47;;;;;;;1.21;100.00;100294.94;5051193;28;20127;-65
2023/01/25 06:33:09;;;;;;;14.27;7.30;;;;;;;1.19;100.00;100300.38;5045581;28;20025;-65
2023/01/25 06:35:34;;;;;;;12.65;5.50;;;;;;;1.19;100.00;100294.19;5039099;28;20029;-65
2023/01/25 06:38:00;;;;;;;10.32;4.90;;;;;;;1.21;100.00;100286.94;5045441;28;20025;-65
2023/01/25 06:40:27;;;;;;;9.82;4.85;;;;;;;1.22;100.00;100288.63;5041707;28;20079;-65
2023/01/25 06:42:53;;;;;;;15.38;5.05;;;;;;;1.26;100.00;100287.47;5039996;28;20470;-65
2023/01/25 06:45:18;;;;;;;14.57;5.50;;;;;;;1.24;100.00;100292.06;5055552;28;20031;-65
2023/01/25 06:47:47;;;;;;;12.02;4.65;;;;;;;1.18;100.00;100292.47;5055776;28;20052;-65
2023/01/25 06:50:13;;;;;;;11.30;5.30;;;;;;;1.20;100.00;100285.22;5034035;28;20043;-65
2023/01/25 06:52:39;;;;;;;8.60;4.70;;;;;;;1.20;100.00;100287.88;5031557;28;20064;-65
2023/01/25 06:55:06;;;;;;;10.23;5.05;;;;;;;1.20;100.00;100290.56;5037307;28;20035;-69
2023/01/25 06:57:33;;;;;;;12.27;5.18;;;;;;;1.22;100.00;100285.97;5048306;28;20456;-69
2023/01/25 06:59:59;;;;;;;10.10;5.15;;;;;;;1.17;100.00;100283.63;5053860;28;20095;-65
2023/01/25 07:02:24;;;;;;;12.77;5.30;;;;;;;1.17;100.00;100283.63;5056419;28;20033;-65
2023/01/25 07:04:50;;;;;;;10.98;5.45;;;;;;;1.16;100.00;100286.41;5044167;28;20487;-65
2023/01/25 07:07:15;;;;;;;12.50;5.28;;;;;;;1.20;100.00;100283.41;5039128;28;20025;-65
2023/01/25 07:09:40;;;;;;;9.07;5.00;;;;;;;1.16;100.00;100294.41;5030139;28;20022;-65
2023/01/25 07:12:06;;;;;;;8.52;4.90;;;;;;;1.22;100.00;100296.63;5041206;28;20496;-64
2023/01/25 07:14:32;;;;;;;10.85;5.40;;;;;;;1.23;100.00;100287.66;5042139;28;20021;-64
2023/01/25 07:16:57;;;;;;;12.65;5.70;;;;;;;1.22;100.00;100284.16;5050209;28;20024;-64
2023/01/25 07:19:23;;;;;;;10.43;5.10;;;;;;;1.27;100.00;100278.50;5047472;28;20047;-64
2023/01/25 07:21:48;;;;;;;8.73;4.47;;;;;;;1.28;100.00;100281.09;5035852;28;20063;-64
2023/01/25 07:24:16;;;;;;;8.80;4.53;;;;;;;1.31;100.00;100275.53;5040918;28;20083;-64
2023/01/25 07:26:41;;;;;;;11.65;5.65;;;;;;;1.30;100.00;100280.94;5047924;28;20020;-65
2023/01/25 07:29:14;;;;;;;9.82;5.28;;;;;;;1.22;100.00;100269.97;5049755;28;20025;-64
2023/01/25 07:31:40;;;;;;;10.82;5.32;;;;;;;1.22;100.00;100267.31;5043408;28;20028;-64
2023/01/25 07:34:09;;;;;;;13.25;5.20;;;;;;;1.24;100.00;100260.06;5047237;28;20024;-64
2023/01/25 07:36:34;;;;;;;13.63;5.28;;;;;;;1.24;100.00;100258.25;5040203;28;20033;-64
2023/01/25 07:39:00;;;;;;;12.05;5.53;;;;;;;1.27;100.00;100266.03;5041127;28;20025;-64
2023/01/25 07:41:26;;;;;;;13.32;6.20;;;;;;;1.30;100.00;100264.97;5042400;28;20061;-64
2023/01/25 07:43:52;;;;;;;14.27;6.88;;;;;;;1.30;100.00;100259.63;5043656;28;20395;-64
2023/01/25 07:46:18;;;;;;;10.82;5.53;;;;;;;1.36;100.00;100263.66;5048200;28;20024;-64
2023/01/25 07:48:48;;;;;;;11.45;5.43;;;;;;;1.43;100.00;100257.78;5040695;28;20384;-64
2023/01/25 07:51:21;;;;;;;11.18;5.70;;;;;;;1.39;100.00;100263.44;5048304;28;20021;-64
2023/01/25 07:53:48;;;;;;;11.95;5.40;;;;;;;1.43;100.00;100265.78;5043656;28;20053;-64
2023/01/25 07:56:14;;;;;;;11.63;5.30;;;;;;;1.43;100.00;100265.78;5047080;28;20060;-64
2023/01/25 07:58:39;;;;;;;8.30;4.55;;;;;;;1.44;100.00;100267.50;5035290;28;20030;-64
2023/01/25 08:01:10;;;;;;;10.77;5.05;;;;;;;1.45;100.00;100263.88;5046816;28;20142;-65
2023/01/25 08:03:35;;;;;;;10.50;5.65;;;;;;;1.47;100.00;100277.97;5049395;28;20025;-65
2023/01/25 08:06:04;;;;;;;10.20;4.88;;;;;;;1.58;100.00;100273.69;5052052;28;20029;-66
2023/01/25 08:08:32;;;;;;;10.90;4.13;;;;;;;1.60;100.00;100271.72;5046447;28;20388;-65
2023/01/25 08:10:58;;;;;;;15.93;7.35;;;;;;;1.51;100.00;100274.09;5042082;28;20020;-65
2023/01/25 08:13:24;;;;;;;12.23;6.22;;;;;;;1.56;100.00;100275.59;5045244;28;20057;-65
2023/01/25 08:15:54;;;;;;;10.18;5.05;;;;;;;1.56;100.00;100275.59;5040967;28;20021;-66
2023/01/25 08:25:03;;;;;;;9.75;4.53;;;;;;;1.52;100.00;100286.50;5064265;28;20426;-65
2023/01/25 08:27:28;;;;;;;10.35;5.10;;;;;;;1.55;100.00;100280.09;5075563;22;20028;-79
2023/01/25 08:29:54;;;;;;;10.07;5.50;;;;;;;1.52;100.00;100269.63;5093584;28;20077;-78
2023/01/25 08:32:19;;;;;;;9.40;4.85;;;;;;;1.57;100.00;100274.63;5075103;28;20033;-80
2023/01/25 08:34:45;;;;;;;9.70;4.85;;;;;;;1.64;100.00;100267.91;5060717;28;20382;-78
2023/01/25 08:37:11;;;;;;;10.75;5.82;;;;;;;1.57;100.00;100267.47;5059936;28;20077;-80
2023/01/25 08:39:36;;;;;;;12.77;5.85;;;;;;;1.56;100.00;100255.09;5052191;28;20029;-77
2023/01/25 08:42:01;;;;;;;12.77;6.07;;;;;;;1.59;100.00;100252.22;5063594;28;20563;-77
2023/01/25 08:44:27;;;;;;;12.30;5.90;;;;;;;1.61;100.00;100250.28;5070518;28;20041;-75
2023/01/25 08:46:52;;;;;;;10.85;5.22;;;;;;;1.61;100.00;100252.13;5053515;28;20082;-75
2023/01/25 08:49:17;;;;;;;11.95;5.30;;;;;;;1.63;100.00;100239.53;5054363;28;20023;-75
2023/01/25 08:51:43;;;;;;;10.50;5.88;;;;;;;1.67;100.00;100254.31;5055820;28;20039;-75
2023/01/25 08:54:11;;;;;;;14.00;5.47;;;;;;;1.67;100.00;100247.16;5079694;28;20045;-75
2023/01/25 08:56:38;;;;;;;10.73;5.13;;;;;;;1.75;100.00;100249.28;5080159;28;20027;-78
2023/01/25 09:02:21;;;;;;;17.00;6.57;;;;;;;1.32;100.00;100191.06;5090942;28;20041;-74
2023/01/25 09:04:46;;;;;;;12.63;6.45;;;;;;;1.65;100.00;100246.47;5073647;28;20043;-75
2023/01/25 09:07:12;;;;;;;12.57;5.93;;;;;;;1.63;100.00;100240.38;5054464;28;20068;-77
2023/01/25 09:09:37;;;;;;;13.45;6.22;;;;;;;1.66;100.00;100239.31;5071109;28;20028;-76
2023/01/25 09:12:03;;;;;;;12.93;5.47;;;;;;;1.62;100.00;100243.13;5070726;28;20031;-78
2023/01/25 09:14:28;;;;;;;13.43;6.00;;;;;;;1.69;100.00;100237.25;5075730;28;20389;-76
2023/01/25 09:16:53;;;;;;;10.93;5.45;;;;;;;1.74;100.00;100235.09;5073444;22;20049;-65
2023/01/25 09:19:19;;;;;;;11.27;4.90;;;;;;;1.75;100.00;100236.78;5071603;28;20026;-64
2023/01/25 09:21:44;;;;;;;12.65;5.45;;;;;;;1.70;100.00;100241.63;5082580;28;20077;-64
2023/01/25 09:24:09;;;;;;;12.32;5.13;;;;;;;1.72;100.00;100236.19;5068135;28;20034;-64
2023/01/25 09:26:38;;;;;;;10.32;5.43;;;;;;;1.73;100.00;100228.06;5086741;22;20485;-75
2023/01/25 09:29:32;;;;;;;12.07;6.38;;;;;;;1.71;100.00;100232.66;5082899;28;20024;-81
2023/01/25 09:31:57;;;;;;;11.98;5.05;;;;;;;1.69;100.00;100210.56;5073431;28;20489;-77
2023/01/25 09:34:23;;;;;;;11.65;5.30;;;;;;;1.78;100.00;100213.53;5092410;28;20107;-81
2023/01/25 09:37:38;;;;;;;14.85;6.75;;;;;;;1.87;100.00;100232.38;5070283;28;20021;-79
2023/01/25 09:40:06;;;;;;;12.45;5.68;;;;;;;1.88;100.00;100228.75;5060880;28;20036;-73
2023/01/25 09:42:53;;;;;;;12.90;5.47;;;;;;;1.78;100.00;100211.69;5069827;28;20089;-73
2023/01/25 09:45:35;;;;;;;10.57;5.45;;;;;;;2.00;100.00;100226.16;5052695;28;20080;-74
2023/01/25 09:48:27;;;;;;;10.43;4.90;;;;;;;1.96;100.00;100226.38;5057622;28;20029;-72
2023/01/25 09:51:10;;;;;;;11.43;5.65;;;;;;;1.93;100.00;100220.41;5042440;28;20552;-73
2023/01/25 09:53:39;;;;;;;23.00;7.90;;;;;;;2.03;100.00;100232.09;5057802;28;20040;-75
2023/01/25 09:56:12;;;;;;;23.55;7.47;;;;;;;1.88;100.00;100210.06;5047004;28;20031;-75
2023/01/25 09:58:47;;;;;;;11.75;5.53;;;;;;;1.90;100.00;100194.78;5046972;28;20021;-73
2023/01/25 10:01:42;;;;;;;13.10;5.38;;;;;;;2.00;100.00;100216.31;5031918;28;20064;-73
2023/01/25 10:04:18;;;;;;;12.73;5.80;;;;;;;2.13;100.00;100214.44;5037817;28;20490;-73
2023/01/25 10:06:49;;;;;;;13.75;6.57;;;;;;;2.00;100.00;100196.81;5062539;28;20033;-80
2023/01/25 10:09:17;;;;;;;9.45;4.63;;;;;;;2.11;100.00;100210.19;5065902;28;20029;-78
2023/01/25 10:11:46;;;;;;;15.20;7.10;;;;;;;1.97;100.00;100187.19;5059604;28;20030;-80
2023/01/25 10:14:17;;;;;;;14.25;5.43;;;;;;;1.86;100.00;100174.66;5069818;28;20283;-79
2023/01/25 10:17:22;;;;;;;13.88;6.10;;;;;;;2.08;100.00;100205.94;5066802;28;20041;-82
2023/01/25 10:20:31;;;;;;;15.27;6.22;;;;;;;2.17;100.00;100207.91;5062052;28;20028;-83
2023/01/25 10:23:24;;;;;;;10.05;5.15;;;;;;;2.01;100.00;100175.31;5035810;28;20041;-79
2023/01/25 10:25:58;;;;;;;13.95;6.00;;;;;;;2.11;100.00;100202.19;5060595;28;20170;-77
2023/01/25 10:29:01;;;;;;;15.13;6.25;;;;;;;2.07;100.00;100198.91;5078206;28;20032;-80
2023/01/25 10:31:38;;;;;;;13.38;5.55;;;;;;;2.07;100.00;100198.03;5078499;28;20115;-80
2023/01/25 10:34:17;;;;;;;10.43;4.90;;;;;;;1.98;100.00;100180.88;5077040;28;20070;-78
2023/01/25 10:36:47;;;;;;;10.95;5.72;;;;;;;2.00;100.00;100183.44;5061563;28;20029;-79
2023/01/25 10:39:12;;;;;;;10.18;5.28;;;;;;;2.09;100.00;100182.75;5048861;28;20401;-76
2023/01/25 10:41:45;;;;;;;10.35;5.78;;;;;;;2.07;100.00;100180.22;5073035;28;20032;-76
2023/01/25 10:44:20;;;;;;;13.60;5.63;;;;;;;2.02;100.00;100165.47;5057927;28;20036;-76
2023/01/25 10:46:52;;;;;;;11.68;5.47;;;;;;;2.02;100.00;100166.34;5045202;28;20475;-79
2023/01/25 10:49:38;;;;;;;12.85;5.47;;;;;;;2.10;100.00;100173.78;5057541;28;20075;-82
2023/01/25 10:52:20;;;;;;;10.82;5.30;;;;;;;2.08;100.00;100178.38;5060481;28;20451;-74
2023/01/25 10:54:49;;;;;;;11.55;6.43;;;;;;;1.93;100.00;100183.88;5050557;28;20032;-74
2023/01/25 10:57:20;;;;;;;11.75;5.15;;;;;;;1.95;100.00;100171.28;5055381;28;20032;-74
2023/01/25 10:59:49;;;;;;;11.82;5.72;;;;;;;2.09;100.00;100175.59;5061572;28;20025;-75
2023/01/25 11:02:43;;;;;;;9.27;4.50;;;;;;;2.18;100.00;100166.06;5063588;28;20501;-74
2023/01/25 11:05:18;;;;;;;11.90;5.68;;;;;;;2.08;100.00;100165.03;5042314;28;20033;-74
2023/01/25 11:07:45;;;;;;;10.57;5.28;;;;;;;2.05;100.00;100159.94;5062041;28;20032;-74
2023/01/25 11:10:33;;;;;;;12.77;5.72;;;;;;;2.05;100.00;100163.44;5045169;28;22089;-74
2023/01/25 11:13:14;;;;;;;13.20;6.40;;;;;;;2.16;100.00;100155.47;5037606;28;20052;-74
2023/01/25 11:15:51;;;;;;;12.25;6.30;;;;;;;2.11;100.00;100148.78;5045912;28;20025;-74
2023/01/25 11:18:27;;;;;;;11.60;6.10;;;;;;;1.92;100.00;100158.19;5068377;28;20043;-74
2023/01/25 11:21:14;;;;;;;14.70;6.85;;;;;;;1.89;100.00;100149.56;5050086;28;20021;-74
2023/01/25 11:23:40;;;;;;;13.90;6.47;;;;;;;1.79;100.00;100137.88;5043447;28;20468;-77
2023/01/25 11:26:18;;;;;;;13.18;5.60;;;;;;;2.06;100.00;100143.78;5048078;28;20104;-77
2023/01/25 11:28:47;;;;;;;11.02;5.72;;;;;;;2.08;100.00;100139.19;5055102;28;20041;-76
2023/01/25 11:31:18;;;;;;;13.40;7.00;;;;;;;2.07;100.00;100133.94;5058161;28;20056;-77
2023/01/25 11:33:44;;;;;;;13.55;6.18;;;;;;;2.08;100.00;100122.31;5058548;28;20029;-77